createdAt,value
2023-01-17T00:01:10.830Z,9.98
2023-01-17T00:04:32.724Z,8.20
2023-01-17T00:07:54.076Z,11.98
2023-01-17T00:10:58.342Z,8.83
2023-01-17T00:14:00.946Z,11.18
2023-01-17T00:17:03.665Z,8.43
2023-01-17T00:20:25.663Z,10.05
2023-01-17T00:24:00.680Z,9.02
2023-01-17T00:27:12.374Z,9.13
2023-01-17T00:30:15.225Z,11.95
2023-01-17T00:33:17.907Z,10.02
2023-01-17T00:36:20.651Z,9.85
2023-01-17T00:39:23.224Z,9.82
2023-01-17T00:42:25.742Z,8.93
2023-01-17T00:45:46.996Z,8.05
2023-01-17T00:49:08.865Z,10.52
2023-01-17T00:52:29.721Z,9.05
2023-01-17T00:55:52.298Z,8.05
2023-01-17T00:59:13.694Z,8.43
2023-01-17T01:02:35.349Z,7.60
2023-01-17T01:05:57.401Z,8.02
2023-01-17T01:09:18.974Z,7.68
2023-01-17T01:12:40.410Z,9.18
2023-01-17T01:16:02.885Z,7.80
2023-01-17T01:19:24.985Z,8.05
2023-01-17T01:22:46.321Z,9.35
2023-01-17T01:26:07.682Z,8.43
2023-01-17T01:29:29.074Z,7.18
2023-01-17T01:32:54.487Z,6.80
2023-01-17T01:35:57.183Z,9.25
2023-01-17T01:39:00.108Z,8.05
2023-01-17T01:42:02.777Z,7.78
2023-01-17T01:45:20.367Z,7.88
2023-01-17T01:48:47.255Z,7.33
2023-01-17T01:51:54.772Z,7.65
2023-01-17T01:55:28.905Z,7.70
2023-01-17T01:58:35.009Z,7.72
2023-01-17T02:01:38.061Z,8.15
2023-01-17T02:04:41.041Z,8.07
2023-01-17T02:07:54.612Z,7.10
2023-01-17T02:10:57.370Z,8.30
2023-01-17T02:14:00.085Z,6.88
2023-01-17T02:17:39.682Z,8.13
2023-01-17T02:21:07.026Z,7.97
2023-01-17T02:25:08.117Z,6.53
2023-01-17T02:28:34.868Z,7.22
2023-01-17T02:32:11.195Z,7.10
2023-01-17T02:35:39.807Z,7.18
2023-01-17T02:39:13.798Z,6.73
2023-01-17T02:42:20.587Z,7.35
2023-01-17T02:45:23.311Z,7.13
2023-01-17T02:48:31.174Z,9.52
2023-01-17T02:52:17.653Z,7.00
2023-01-17T02:55:23.256Z,8.07
2023-01-17T02:58:55.757Z,8.55
2023-01-17T03:02:22.846Z,6.90
2023-01-17T03:05:41.515Z,8.90
2023-01-17T03:08:46.529Z,7.22
2023-01-17T03:11:49.303Z,6.83
2023-01-17T03:14:51.935Z,6.32
2023-01-17T03:17:59.845Z,7.07
2023-01-17T03:21:03.778Z,6.28
2023-01-17T03:24:06.779Z,6.63
2023-01-17T03:27:09.435Z,6.90
2023-01-17T03:30:12.932Z,7.50
2023-01-17T03:33:20.300Z,7.38
2023-01-17T03:36:22.833Z,6.65
2023-01-17T03:39:25.458Z,8.38
2023-01-17T03:42:28.206Z,7.27
2023-01-17T03:45:30.897Z,8.45
2023-01-17T03:48:33.517Z,5.88
2023-01-17T03:51:36.429Z,6.70
2023-01-17T03:54:39.012Z,6.60
2023-01-17T03:57:41.613Z,6.60
2023-01-17T04:00:44.429Z,6.70
2023-01-17T04:03:47.091Z,6.68
2023-01-17T04:06:49.634Z,6.85
2023-01-17T04:09:52.296Z,7.00
2023-01-17T04:12:54.870Z,6.63
2023-01-17T04:15:58.179Z,6.80
2023-01-17T04:19:00.920Z,6.82
2023-01-17T04:22:03.678Z,8.10
2023-01-17T04:25:06.405Z,5.97
2023-01-17T04:28:10.957Z,5.83
2023-01-17T04:31:16.335Z,6.03
2023-01-17T04:34:19.082Z,7.07
2023-01-17T04:37:22.750Z,6.88
2023-01-17T04:40:26.620Z,6.93
2023-01-17T04:43:29.647Z,5.83
2023-01-17T04:46:32.485Z,6.53
2023-01-17T04:49:35.096Z,6.88
2023-01-17T04:52:37.772Z,6.38
2023-01-17T04:55:40.490Z,6.78
2023-01-17T04:58:43.094Z,6.47
2023-01-17T05:01:47.781Z,6.07
2023-01-17T05:04:50.318Z,6.70
2023-01-17T05:07:57.153Z,6.22
2023-01-17T05:10:59.814Z,6.90
2023-01-17T05:14:02.661Z,7.07
2023-01-17T05:17:05.420Z,6.13
2023-01-17T05:20:09.051Z,7.10
2023-01-17T05:23:12.038Z,6.50
2023-01-17T05:26:14.703Z,6.47
2023-01-17T05:29:17.306Z,6.50
2023-01-17T05:32:19.976Z,5.50
2023-01-17T05:35:25.912Z,6.55
2023-01-17T05:38:28.493Z,6.13
2023-01-17T05:41:31.325Z,6.47
2023-01-17T05:44:34.391Z,7.13
2023-01-17T05:47:37.331Z,7.03
2023-01-17T05:50:39.969Z,6.28
2023-01-17T05:53:42.761Z,5.90
2023-01-17T05:56:45.323Z,6.72
2023-01-17T05:59:48.392Z,6.67
2023-01-17T06:02:54.306Z,6.22
2023-01-17T06:05:56.971Z,5.80
2023-01-17T06:08:59.871Z,6.22
2023-01-17T06:12:02.486Z,6.10
2023-01-17T06:15:08.177Z,6.00
2023-01-17T06:18:14.412Z,6.60
2023-01-17T06:21:17.395Z,7.03
2023-01-17T06:24:20.008Z,7.22
2023-01-17T06:27:22.697Z,6.68
2023-01-17T06:30:25.371Z,6.87
2023-01-17T06:33:28.139Z,6.63
2023-01-17T06:36:33.313Z,6.07
2023-01-17T06:39:36.731Z,6.80
2023-01-17T06:42:39.339Z,6.68
2023-01-17T06:45:42.010Z,5.43
2023-01-17T06:48:49.437Z,6.38
2023-01-17T06:51:52.084Z,6.43
2023-01-17T06:54:54.695Z,7.57
2023-01-17T06:57:59.626Z,5.72
2023-01-17T07:01:11.736Z,6.20
2023-01-17T07:04:20.478Z,5.47
2023-01-17T07:07:29.748Z,7.22
2023-01-17T07:10:33.568Z,7.35
2023-01-17T07:13:38.275Z,6.60
2023-01-17T07:16:45.353Z,6.47
2023-01-17T07:20:07.776Z,7.20
2023-01-17T07:23:48.966Z,6.95
2023-01-17T07:26:52.443Z,6.47
2023-01-17T07:29:58.376Z,6.00
2023-01-17T07:33:05.728Z,8.17
2023-01-17T07:36:10.315Z,8.05
2023-01-17T07:39:13.364Z,5.95
2023-01-17T07:42:16.920Z,8.52
2023-01-17T07:45:22.110Z,6.18
2023-01-17T07:48:25.263Z,5.90
2023-01-17T07:51:29.573Z,8.25
2023-01-17T07:54:32.423Z,7.00
2023-01-17T07:57:35.059Z,6.65
2023-01-17T08:00:37.764Z,7.32
2023-01-17T08:03:48.161Z,9.70
2023-01-17T08:06:52.081Z,6.97
2023-01-17T08:09:55.579Z,10.23
2023-01-17T08:12:58.322Z,7.47
2023-01-17T08:16:03.509Z,8.45
2023-01-17T08:19:08.565Z,13.53
2023-01-17T08:22:12.599Z,7.13
2023-01-17T08:25:16.342Z,8.77
2023-01-17T08:28:41.072Z,7.10
2023-01-17T08:31:50.735Z,9.07
2023-01-17T08:34:53.480Z,7.73
2023-01-17T08:37:57.770Z,7.82
2023-01-17T08:41:02.898Z,6.13
2023-01-17T08:44:06.951Z,7.72
2023-01-17T08:47:10.032Z,8.70
2023-01-17T08:50:13.470Z,8.67
2023-01-17T08:53:19.448Z,10.02
2023-01-17T08:56:23.898Z,8.32
2023-01-17T08:59:26.451Z,9.93
2023-01-17T09:02:29.422Z,10.38
2023-01-17T09:05:32.633Z,8.07
2023-01-17T09:08:36.513Z,8.13
2023-01-17T09:11:40.678Z,9.57
2023-01-17T09:14:43.548Z,7.53
2023-01-17T09:17:48.295Z,6.90
2023-01-17T09:24:55.415Z,9.40
2023-01-17T09:28:09.923Z,9.25
2023-01-17T09:31:52.688Z,9.95
2023-01-17T09:35:00.268Z,8.98
2023-01-17T09:38:04.112Z,8.67
2023-01-17T09:41:33.280Z,9.27
2023-01-17T09:44:59.219Z,7.22
2023-01-17T09:48:09.088Z,7.45
2023-01-17T09:51:24.237Z,9.13
2023-01-17T09:54:36.514Z,10.07
2023-01-17T09:57:40.683Z,16.20
2023-01-17T10:01:10.272Z,10.15
2023-01-17T10:04:39.884Z,12.35
2023-01-17T10:08:09.576Z,7.55
2023-01-17T10:11:41.275Z,9.60
2023-01-17T10:15:08.702Z,11.80
2023-01-17T10:18:35.851Z,8.52
2023-01-17T10:21:54.679Z,10.88
2023-01-17T10:25:09.311Z,8.27
2023-01-17T10:28:14.759Z,9.57
2023-01-17T10:31:31.856Z,10.57
2023-01-17T10:34:45.133Z,10.15
2023-01-17T10:37:51.119Z,9.20
2023-01-17T10:42:00.418Z,7.70
2023-01-17T10:45:43.881Z,8.97
2023-01-17T10:48:49.611Z,11.18
2023-01-17T10:52:20.539Z,9.93
2023-01-17T10:55:33.142Z,9.35
2023-01-17T10:58:37.113Z,11.88
2023-01-17T11:01:40.224Z,13.83
2023-01-17T11:04:43.261Z,9.65
2023-01-17T11:08:07.465Z,9.95
2023-01-17T11:11:10.703Z,10.27
2023-01-17T11:14:22.351Z,11.65
2023-01-17T11:17:29.448Z,10.97
2023-01-17T11:20:43.231Z,8.88
2023-01-17T11:23:49.124Z,9.73
2023-01-17T11:26:53.400Z,12.75
2023-01-17T11:30:18.577Z,9.75
2023-01-17T11:33:35.441Z,9.93
2023-01-17T11:36:38.207Z,6.88
2023-01-17T11:39:42.465Z,12.52
2023-01-17T11:42:46.501Z,10.13
2023-01-17T11:46:12.824Z,9.50
2023-01-17T11:49:30.927Z,11.10
2023-01-17T11:52:37.642Z,11.90
2023-01-17T11:55:40.883Z,8.35
2023-01-17T11:58:45.998Z,9.95
2023-01-17T12:02:09.750Z,13.13
2023-01-17T12:05:36.614Z,9.60
2023-01-17T12:09:03.300Z,10.73
2023-01-17T12:12:33.598Z,9.73
2023-01-17T12:16:01.893Z,8.75
2023-01-17T12:19:22.950Z,10.05
2023-01-17T12:22:47.002Z,11.23
2023-01-17T12:26:10.659Z,10.25
2023-01-17T12:29:34.752Z,9.40
2023-01-17T12:33:12.992Z,8.38
2023-01-17T12:36:40.733Z,9.82
2023-01-17T12:39:53.768Z,9.20
2023-01-17T12:43:16.159Z,10.50
2023-01-17T12:46:27.382Z,14.38
2023-01-17T12:49:56.358Z,13.52
2023-01-17T12:53:53.227Z,12.80
2023-01-17T12:57:06.382Z,8.13
2023-01-17T13:00:14.250Z,9.02
2023-01-17T13:03:29.535Z,10.65
2023-01-17T13:06:45.767Z,8.02
2023-01-17T13:10:08.105Z,10.23
2023-01-17T13:13:17.605Z,10.77
2023-01-17T13:16:46.490Z,12.00
2023-01-17T13:20:02.280Z,10.18
2023-01-17T13:23:50.828Z,11.75
2023-01-17T13:27:13.196Z,7.88
2023-01-17T13:30:49.248Z,13.13
2023-01-17T13:34:13.527Z,9.20
2023-01-17T13:37:42.578Z,12.10
2023-01-17T13:40:55.058Z,9.75
2023-01-17T13:44:18.977Z,9.82
2023-01-17T13:47:25.781Z,10.73
2023-01-17T13:50:50.153Z,13.45
2023-01-17T13:53:55.063Z,14.57
2023-01-17T13:57:27.899Z,11.48
2023-01-17T14:00:44.144Z,10.65
2023-01-17T14:03:50.494Z,11.40
2023-01-17T14:06:56.604Z,9.68
2023-01-17T14:10:00.860Z,10.07
2023-01-17T14:13:08.567Z,9.18
2023-01-17T14:16:29.203Z,11.73
2023-01-17T14:19:36.505Z,8.53
2023-01-17T14:22:47.649Z,9.98
2023-01-17T14:25:51.908Z,10.23
2023-01-17T14:28:56.440Z,7.65
2023-01-17T14:32:05.616Z,10.00
2023-01-17T14:35:21.640Z,12.47
2023-01-17T14:38:31.707Z,11.55
2023-01-17T14:41:39.576Z,10.30
2023-01-17T14:44:46.821Z,8.07
2023-01-17T14:47:54.095Z,8.88
2023-01-17T14:51:00.212Z,8.67
2023-01-17T14:54:15.840Z,9.80
2023-01-17T14:57:27.519Z,12.10
2023-01-17T15:00:33.653Z,13.85
2023-01-17T15:03:45.414Z,9.55
2023-01-17T15:06:49.252Z,8.97
2023-01-17T15:09:51.930Z,11.15
2023-01-17T15:12:56.652Z,9.75
2023-01-17T15:16:24.062Z,11.00
2023-01-17T15:19:26.834Z,8.43
2023-01-17T15:22:30.324Z,8.30
2023-01-17T15:25:33.774Z,9.55
2023-01-17T15:28:37.107Z,12.85
2023-01-17T15:31:47.213Z,11.45
2023-01-17T15:34:51.915Z,7.18
2023-01-17T15:37:56.089Z,9.53
2023-01-17T15:41:17.114Z,7.75
2023-01-17T15:44:46.769Z,9.48
2023-01-17T15:47:51.037Z,11.60
2023-01-17T15:50:59.685Z,12.15
2023-01-17T15:54:40.705Z,12.97
2023-01-17T15:57:47.594Z,12.82
2023-01-17T16:00:50.334Z,11.45
2023-01-17T16:03:55.314Z,23.17
2023-01-17T16:07:19.759Z,17.45
2023-01-17T16:10:35.707Z,12.63
2023-01-17T16:13:39.323Z,18.38
2023-01-17T16:16:51.356Z,16.90
2023-01-17T16:19:53.979Z,10.73
2023-01-17T16:22:56.598Z,10.95
2023-01-17T16:25:59.448Z,12.63
2023-01-17T16:29:03.154Z,12.80
2023-01-17T16:32:09.013Z,14.82
2023-01-17T16:35:32.434Z,12.75
2023-01-17T16:38:35.700Z,10.50
2023-01-17T16:41:38.340Z,12.73
2023-01-17T16:44:41.581Z,11.32
2023-01-17T16:47:46.892Z,11.02
2023-01-17T16:50:52.424Z,12.68
2023-01-17T16:53:56.423Z,11.13
2023-01-17T16:56:59.120Z,15.53
2023-01-17T17:00:02.645Z,9.65
2023-01-17T17:03:05.362Z,10.02
2023-01-17T17:06:08.658Z,12.45
2023-01-17T17:09:11.391Z,7.20
2023-01-17T17:12:14.279Z,11.67
2023-01-17T17:15:17.699Z,11.25
2023-01-17T17:18:21.560Z,8.38
2023-01-17T17:21:24.921Z,9.50
2023-01-17T17:24:28.603Z,9.35
2023-01-17T17:27:32.195Z,9.63
2023-01-17T17:30:36.172Z,9.20
2023-01-17T17:33:39.143Z,11.10
2023-01-17T17:36:42.650Z,8.95
2023-01-17T17:39:45.425Z,8.00
2023-01-17T17:42:49.021Z,8.20
2023-01-17T17:45:52.413Z,9.45
2023-01-17T17:49:00.324Z,11.88
2023-01-17T17:52:05.198Z,10.13
2023-01-17T17:55:08.737Z,8.82
2023-01-17T17:58:11.489Z,7.30
2023-01-17T18:01:15.335Z,8.13
2023-01-17T18:04:19.579Z,8.93
2023-01-17T18:07:22.328Z,8.10
2023-01-17T18:10:31.111Z,7.95
2023-01-17T18:13:34.652Z,7.80
2023-01-17T18:16:41.957Z,7.03
2023-01-17T18:19:46.797Z,9.25
2023-01-17T18:22:51.034Z,8.15
2023-01-17T18:25:57.195Z,8.13
2023-01-17T18:29:01.159Z,8.17
2023-01-17T18:32:06.803Z,6.97
2023-01-17T18:35:10.748Z,9.45
2023-01-17T18:38:14.317Z,8.88
2023-01-17T18:41:22.834Z,6.85
2023-01-17T18:44:27.606Z,6.07
2023-01-17T18:47:32.366Z,7.05
2023-01-17T18:50:36.455Z,7.22
2023-01-17T18:53:42.136Z,6.90
2023-01-17T18:56:47.250Z,7.20
2023-01-17T18:59:50.996Z,6.80
2023-01-17T19:02:55.314Z,7.07
2023-01-17T19:06:02.858Z,7.90
2023-01-17T19:09:08.205Z,6.50
2023-01-17T19:12:11.943Z,5.45
2023-01-17T19:15:16.092Z,8.10
2023-01-17T19:18:19.798Z,5.57
2023-01-17T19:21:26.570Z,6.97
2023-01-17T19:24:32.380Z,6.50
2023-01-17T19:27:37.052Z,7.47
2023-01-17T19:30:41.484Z,6.23
2023-01-17T19:33:47.360Z,5.80
2023-01-17T19:36:51.006Z,6.82
2023-01-17T19:39:55.780Z,5.88
2023-01-17T19:42:59.723Z,5.20
2023-01-17T19:46:04.130Z,6.07
2023-01-17T19:49:10.576Z,7.28
2023-01-17T19:52:16.009Z,5.55
2023-01-17T19:55:26.727Z,5.05
2023-01-17T19:58:32.989Z,6.75
2023-01-17T20:01:36.975Z,5.53
2023-01-17T20:04:41.268Z,4.70
2023-01-17T20:07:45.529Z,4.57
2023-01-17T20:10:49.191Z,5.22
2023-01-17T20:13:56.839Z,4.72
2023-01-17T20:17:00.405Z,6.23
2023-01-17T20:20:13.207Z,5.75
2023-01-17T20:23:19.523Z,5.70
2023-01-17T20:26:34.944Z,4.97
2023-01-17T20:29:40.833Z,5.85
2023-01-17T20:32:46.622Z,5.80
2023-01-17T20:36:09.110Z,5.10
2023-01-17T20:39:15.605Z,5.45
2023-01-17T20:42:19.951Z,4.78
2023-01-17T20:45:25.847Z,5.45
2023-01-17T20:48:30.908Z,4.30
2023-01-17T20:51:40.537Z,4.75
2023-01-17T20:54:45.066Z,5.05
2023-01-17T20:57:48.119Z,4.78
2023-01-17T21:00:53.004Z,4.85
2023-01-17T21:03:56.047Z,5.33
2023-01-17T21:06:59.145Z,6.18
2023-01-17T21:10:03.357Z,4.90
2023-01-17T21:13:07.033Z,6.15
2023-01-17T21:16:14.330Z,4.10
2023-01-17T21:19:17.660Z,5.03
2023-01-17T21:22:20.558Z,6.35
2023-01-17T21:25:24.237Z,5.25
2023-01-17T21:28:30.358Z,4.55
2023-01-17T21:31:35.225Z,4.85
2023-01-17T21:34:37.825Z,4.50
2023-01-17T21:37:41.165Z,4.88
2023-01-17T21:40:44.876Z,4.28
2023-01-17T21:43:48.292Z,5.35
2023-01-17T21:46:56.369Z,4.72
2023-01-17T21:49:59.181Z,5.93
2023-01-17T21:53:02.928Z,4.72
2023-01-17T21:56:27.073Z,3.88
2023-01-17T21:59:32.545Z,4.80
2023-01-17T22:02:35.261Z,5.35
2023-01-17T22:05:38.041Z,4.27
2023-01-17T22:08:41.290Z,5.45
2023-01-17T22:11:44.039Z,4.40
2023-01-17T22:14:46.755Z,5.20
2023-01-17T22:17:49.599Z,5.53
2023-01-17T22:20:52.309Z,4.40
2023-01-17T22:23:58.397Z,5.20
2023-01-17T22:27:00.934Z,4.63
2023-01-17T22:30:04.065Z,4.70
2023-01-17T22:33:07.134Z,5.97
2023-01-17T22:36:13.705Z,3.60
2023-01-17T22:39:16.367Z,4.85
2023-01-17T22:42:19.061Z,4.78
2023-01-17T22:45:21.768Z,4.13
2023-01-17T22:48:24.384Z,4.18
2023-01-17T22:51:28.574Z,4.50
2023-01-17T22:54:31.418Z,5.22
2023-01-17T22:57:34.641Z,3.88
2023-01-17T23:00:37.252Z,3.95
2023-01-17T23:03:41.232Z,5.07
2023-01-17T23:06:43.989Z,4.70
2023-01-17T23:09:46.571Z,4.35
2023-01-17T23:12:49.332Z,5.68
2023-01-17T23:16:10.669Z,4.55
2023-01-17T23:19:22.746Z,3.63
2023-01-17T23:22:27.640Z,4.20
2023-01-17T23:25:30.203Z,4.55
2023-01-17T23:28:32.785Z,5.60
2023-01-17T23:31:36.781Z,5.60
2023-01-17T23:34:39.338Z,4.82
2023-01-17T23:38:00.606Z,5.10
2023-01-17T23:41:28.236Z,4.22
2023-01-17T23:44:32.064Z,4.45
2023-01-17T23:47:34.658Z,5.03
2023-01-17T23:50:38.955Z,4.75
2023-01-17T23:53:41.768Z,4.43
2023-01-17T23:56:44.788Z,4.70
2023-01-17T23:59:48.367Z,4.97
